sensor_id;sensor_type;location;lat;lon;timestamp;P1;durP1;ratioP1;P2;durP2;ratioP2
75098;SDS011;63685;47.374;8.498;2022-10-31T00:02:21;14.38;;;7.53;;
75098;SDS011;63685;47.374;8.498;2022-10-31T00:04:46;15.02;;;7.47;;
75098;SDS011;63685;47.374;8.498;2022-10-31T00:07:12;15.43;;;7.22;;
75098;SDS011;63685;47.374;8.498;2022-10-31T00:09:37;12.85;;;7.00;;
75098;SDS011;63685;47.374;8.498;2022-10-31T00:12:03;16.48;;;7.72;;
75098;SDS011;63685;47.374;8.498;2022-10-31T00:14:28;15.38;;;7.32;;
75098;SDS011;63685;47.374;8.498;2022-10-31T00:16:54;14.20;;;7.78;;
75098;SDS011;63685;47.374;8.498;2022-10-31T00:19:19;14.23;;;6.65;;
75098;SDS011;63685;47.374;8.498;2022-10-31T00:21:45;15.27;;;7.25;;
75098;SDS011;63685;47.374;8.498;2022-10-31T00:24:11;15.52;;;7.60;;
75098;SDS011;63685;47.374;8.498;2022-10-31T00:26:36;15.48;;;7.57;;
75098;SDS011;63685;47.374;8.498;2022-10-31T00:29:02;15.70;;;7.97;;
75098;SDS011;63685;47.374;8.498;2022-10-31T00:31:28;17.83;;;7.10;;
75098;SDS011;63685;47.374;8.498;2022-10-31T00:33:54;13.82;;;6.90;;
75098;SDS011;63685;47.374;8.498;2022-10-31T00:36:20;15.65;;;7.35;;
75098;SDS011;63685;47.374;8.498;2022-10-31T00:38:46;12.45;;;7.30;;
75098;SDS011;63685;47.374;8.498;2022-10-31T00:41:13;12.55;;;6.63;;
75098;SDS011;63685;47.374;8.498;2022-10-31T00:43:40;17.08;;;7.63;;
75098;SDS011;63685;47.374;8.498;2022-10-31T00:46:06;13.68;;;6.63;;
75098;SDS011;63685;47.374;8.498;2022-10-31T00:48:32;14.40;;;6.88;;
75098;SDS011;63685;47.374;8.498;2022-10-31T00:50:58;13.85;;;7.03;;
75098;SDS011;63685;47.374;8.498;2022-10-31T00:53:23;16.25;;;7.00;;
75098;SDS011;63685;47.374;8.498;2022-10-31T00:55:49;13.80;;;6.90;;
75098;SDS011;63685;47.374;8.498;2022-10-31T00:58:15;11.73;;;7.00;;
75098;SDS011;63685;47.374;8.498;2022-10-31T01:00:41;13.45;;;6.78;;
75098;SDS011;63685;47.374;8.498;2022-10-31T01:03:06;11.75;;;6.13;;
75098;SDS011;63685;47.374;8.498;2022-10-31T01:05:32;11.40;;;6.72;;
75098;SDS011;63685;47.374;8.498;2022-10-31T01:07:58;14.90;;;7.28;;
75098;SDS011;63685;47.374;8.498;2022-10-31T01:10:23;12.88;;;7.05;;
75098;SDS011;63685;47.374;8.498;2022-10-31T01:12:49;13.57;;;6.20;;
75098;SDS011;63685;47.374;8.498;2022-10-31T01:15:16;11.70;;;6.65;;
75098;SDS011;63685;47.374;8.498;2022-10-31T01:17:43;13.52;;;7.00;;
75098;SDS011;63685;47.374;8.498;2022-10-31T01:20:09;13.60;;;6.35;;
75098;SDS011;63685;47.374;8.498;2022-10-31T01:22:36;12.63;;;6.93;;
75098;SDS011;63685;47.374;8.498;2022-10-31T01:25:01;13.55;;;6.32;;
75098;SDS011;63685;47.374;8.498;2022-10-31T01:27:27;13.75;;;6.60;;
75098;SDS011;63685;47.374;8.498;2022-10-31T01:29:53;12.63;;;6.10;;
75098;SDS011;63685;47.374;8.498;2022-10-31T01:32:19;15.38;;;6.53;;
75098;SDS011;63685;47.374;8.498;2022-10-31T01:34:44;14.18;;;7.20;;
75098;SDS011;63685;47.374;8.498;2022-10-31T01:37:10;14.88;;;6.55;;
75098;SDS011;63685;47.374;8.498;2022-10-31T01:39:35;15.45;;;6.82;;
75098;SDS011;63685;47.374;8.498;2022-10-31T01:42:01;17.27;;;6.32;;
75098;SDS011;63685;47.374;8.498;2022-10-31T01:47:04;13.73;;;6.80;;
75098;SDS011;63685;47.374;8.498;2022-10-31T01:49:46;15.30;;;6.53;;
75098;SDS011;63685;47.374;8.498;2022-10-31T01:52:38;12.13;;;6.47;;
75098;SDS011;63685;47.374;8.498;2022-10-31T01:57:40;15.43;;;6.35;;
75098;SDS011;63685;47.374;8.498;2022-10-31T02:00:09;12.82;;;6.30;;
75098;SDS011;63685;47.374;8.498;2022-10-31T02:02:36;11.98;;;5.78;;
75098;SDS011;63685;47.374;8.498;2022-10-31T02:05:02;11.55;;;6.22;;
75098;SDS011;63685;47.374;8.498;2022-10-31T02:07:33;11.98;;;5.95;;
75098;SDS011;63685;47.374;8.498;2022-10-31T02:10:09;13.52;;;6.63;;
75098;SDS011;63685;47.374;8.498;2022-10-31T02:12:35;12.43;;;6.05;;
75098;SDS011;63685;47.374;8.498;2022-10-31T02:15:03;12.60;;;6.00;;
75098;SDS011;63685;47.374;8.498;2022-10-31T02:17:30;11.80;;;6.43;;
75098;SDS011;63685;47.374;8.498;2022-10-31T02:20:12;13.68;;;6.88;;
75098;SDS011;63685;47.374;8.498;2022-10-31T02:28:24;11.82;;;6.05;;
75098;SDS011;63685;47.374;8.498;2022-10-31T02:33:49;11.38;;;6.28;;
75098;SDS011;63685;47.374;8.498;2022-10-31T02:41:48;10.77;;;5.65;;
75098;SDS011;63685;47.374;8.498;2022-10-31T02:44:30;11.30;;;5.38;;
75098;SDS011;63685;47.374;8.498;2022-10-31T02:47:09;12.75;;;5.93;;
75098;SDS011;63685;47.374;8.498;2022-10-31T02:52:25;12.95;;;6.45;;
75098;SDS011;63685;47.374;8.498;2022-10-31T02:54:51;10.70;;;5.63;;
75098;SDS011;63685;47.374;8.498;2022-10-31T02:57:19;8.18;;;4.72;;
75098;SDS011;63685;47.374;8.498;2022-10-31T02:59:48;11.13;;;5.93;;
75098;SDS011;63685;47.374;8.498;2022-10-31T03:02:30;9.25;;;5.82;;
75098;SDS011;63685;47.374;8.498;2022-10-31T03:05:07;10.05;;;5.13;;
75098;SDS011;63685;47.374;8.498;2022-10-31T03:10:21;10.95;;;5.00;;
75098;SDS011;63685;47.374;8.498;2022-10-31T03:13:16;12.95;;;5.18;;
75098;SDS011;63685;47.374;8.498;2022-10-31T03:18:47;11.10;;;5.43;;
75098;SDS011;63685;47.374;8.498;2022-10-31T03:21:21;11.65;;;5.28;;
75098;SDS011;63685;47.374;8.498;2022-10-31T03:23:54;10.15;;;4.80;;
75098;SDS011;63685;47.374;8.498;2022-10-31T03:26:22;15.63;;;5.65;;
75098;SDS011;63685;47.374;8.498;2022-10-31T03:28:51;11.15;;;5.40;;
75098;SDS011;63685;47.374;8.498;2022-10-31T03:31:22;9.18;;;5.13;;
75098;SDS011;63685;47.374;8.498;2022-10-31T03:33:51;10.57;;;5.50;;
75098;SDS011;63685;47.374;8.498;2022-10-31T03:36:17;10.07;;;4.88;;
75098;SDS011;63685;47.374;8.498;2022-10-31T03:38:45;10.65;;;5.15;;
75098;SDS011;63685;47.374;8.498;2022-10-31T03:41:13;10.15;;;5.53;;
75098;SDS011;63685;47.374;8.498;2022-10-31T03:43:46;10.18;;;5.32;;
75098;SDS011;63685;47.374;8.498;2022-10-31T03:46:22;10.50;;;4.95;;
75098;SDS011;63685;47.374;8.498;2022-10-31T03:48:49;12.73;;;5.15;;
75098;SDS011;63685;47.374;8.498;2022-10-31T03:54:41;8.43;;;4.47;;
75098;SDS011;63685;47.374;8.498;2022-10-31T03:59:40;10.52;;;5.55;;
75098;SDS011;63685;47.374;8.498;2022-10-31T04:02:16;10.25;;;4.75;;
75098;SDS011;63685;47.374;8.498;2022-10-31T04:04:45;9.93;;;5.10;;
75098;SDS011;63685;47.374;8.498;2022-10-31T04:07:13;10.38;;;5.57;;
75098;SDS011;63685;47.374;8.498;2022-10-31T04:09:41;13.55;;;5.30;;
75098;SDS011;63685;47.374;8.498;2022-10-31T04:12:10;9.80;;;4.60;;
75098;SDS011;63685;47.374;8.498;2022-10-31T04:14:39;12.60;;;5.10;;
75098;SDS011;63685;47.374;8.498;2022-10-31T04:17:08;10.63;;;4.75;;
75098;SDS011;63685;47.374;8.498;2022-10-31T04:19:39;10.57;;;4.72;;
75098;SDS011;63685;47.374;8.498;2022-10-31T04:22:05;11.98;;;5.45;;
75098;SDS011;63685;47.374;8.498;2022-10-31T04:24:31;13.18;;;5.25;;
75098;SDS011;63685;47.374;8.498;2022-10-31T04:26:56;12.40;;;4.57;;
75098;SDS011;63685;47.374;8.498;2022-10-31T04:29:22;12.02;;;5.38;;
75098;SDS011;63685;47.374;8.498;2022-10-31T04:31:47;11.02;;;5.10;;
75098;SDS011;63685;47.374;8.498;2022-10-31T04:34:13;13.38;;;5.25;;
75098;SDS011;63685;47.374;8.498;2022-10-31T04:36:39;9.95;;;4.82;;
75098;SDS011;63685;47.374;8.498;2022-10-31T04:39:04;8.55;;;4.72;;
75098;SDS011;63685;47.374;8.498;2022-10-31T04:41:30;12.13;;;5.40;;
75098;SDS011;63685;47.374;8.498;2022-10-31T04:43:55;9.70;;;5.18;;
75098;SDS011;63685;47.374;8.498;2022-10-31T04:46:21;11.82;;;5.53;;
75098;SDS011;63685;47.374;8.498;2022-10-31T04:48:46;7.85;;;4.57;;
75098;SDS011;63685;47.374;8.498;2022-10-31T04:51:12;11.68;;;5.68;;
75098;SDS011;63685;47.374;8.498;2022-10-31T04:53:37;10.73;;;4.72;;
75098;SDS011;63685;47.374;8.498;2022-10-31T04:56:03;8.40;;;5.43;;
75098;SDS011;63685;47.374;8.498;2022-10-31T04:58:29;9.48;;;5.35;;
75098;SDS011;63685;47.374;8.498;2022-10-31T05:00:55;10.38;;;4.82;;
75098;SDS011;63685;47.374;8.498;2022-10-31T05:03:21;12.27;;;6.07;;
75098;SDS011;63685;47.374;8.498;2022-10-31T05:05:46;10.15;;;5.32;;
75098;SDS011;63685;47.374;8.498;2022-10-31T05:08:13;9.25;;;4.93;;
75098;SDS011;63685;47.374;8.498;2022-10-31T05:10:39;14.93;;;6.05;;
75098;SDS011;63685;47.374;8.498;2022-10-31T05:13:04;11.85;;;5.53;;
75098;SDS011;63685;47.374;8.498;2022-10-31T05:15:30;7.05;;;5.20;;
75098;SDS011;63685;47.374;8.498;2022-10-31T05:17:56;7.90;;;5.38;;
75098;SDS011;63685;47.374;8.498;2022-10-31T05:20:24;9.40;;;5.03;;
75098;SDS011;63685;47.374;8.498;2022-10-31T05:22:51;10.13;;;5.40;;
75098;SDS011;63685;47.374;8.498;2022-10-31T05:25:19;11.00;;;5.18;;
75098;SDS011;63685;47.374;8.498;2022-10-31T05:27:46;8.75;;;5.20;;
75098;SDS011;63685;47.374;8.498;2022-10-31T05:30:13;13.30;;;5.15;;
75098;SDS011;63685;47.374;8.498;2022-10-31T05:32:44;9.75;;;5.13;;
75098;SDS011;63685;47.374;8.498;2022-10-31T05:35:16;11.60;;;4.90;;
75098;SDS011;63685;47.374;8.498;2022-10-31T05:37:43;12.10;;;5.00;;
75098;SDS011;63685;47.374;8.498;2022-10-31T05:40:10;8.88;;;4.95;;
75098;SDS011;63685;47.374;8.498;2022-10-31T05:42:40;12.93;;;5.95;;
75098;SDS011;63685;47.374;8.498;2022-10-31T05:45:11;11.40;;;5.35;;
75098;SDS011;63685;47.374;8.498;2022-10-31T05:47:40;11.15;;;5.30;;
75098;SDS011;63685;47.374;8.498;2022-10-31T05:50:06;10.80;;;5.35;;
75098;SDS011;63685;47.374;8.498;2022-10-31T05:52:33;13.05;;;4.80;;
75098;SDS011;63685;47.374;8.498;2022-10-31T05:54:58;13.05;;;5.20;;
75098;SDS011;63685;47.374;8.498;2022-10-31T05:57:24;13.38;;;4.53;;
75098;SDS011;63685;47.374;8.498;2022-10-31T05:59:50;10.27;;;5.55;;
75098;SDS011;63685;47.374;8.498;2022-10-31T06:02:18;11.20;;;4.57;;
75098;SDS011;63685;47.374;8.498;2022-10-31T06:04:44;12.48;;;5.25;;
75098;SDS011;63685;47.374;8.498;2022-10-31T06:07:09;11.18;;;5.10;;
75098;SDS011;63685;47.374;8.498;2022-10-31T06:09:35;11.82;;;5.30;;
75098;SDS011;63685;47.374;8.498;2022-10-31T06:12:00;11.50;;;5.78;;
75098;SDS011;63685;47.374;8.498;2022-10-31T06:14:26;12.98;;;5.18;;
75098;SDS011;63685;47.374;8.498;2022-10-31T06:16:51;10.63;;;5.25;;
75098;SDS011;63685;47.374;8.498;2022-10-31T06:19:18;12.10;;;4.95;;
75098;SDS011;63685;47.374;8.498;2022-10-31T06:21:44;11.20;;;4.80;;
75098;SDS011;63685;47.374;8.498;2022-10-31T06:24:10;12.63;;;5.28;;
75098;SDS011;63685;47.374;8.498;2022-10-31T06:26:35;15.25;;;5.00;;
75098;SDS011;63685;47.374;8.498;2022-10-31T06:29:01;8.73;;;4.80;;
75098;SDS011;63685;47.374;8.498;2022-10-31T06:31:26;11.73;;;4.72;;
75098;SDS011;63685;47.374;8.498;2022-10-31T06:33:52;12.95;;;4.72;;
75098;SDS011;63685;47.374;8.498;2022-10-31T06:36:17;12.90;;;5.10;;
75098;SDS011;63685;47.374;8.498;2022-10-31T06:38:43;9.90;;;4.63;;
75098;SDS011;63685;47.374;8.498;2022-10-31T06:41:08;11.63;;;5.00;;
75098;SDS011;63685;47.374;8.498;2022-10-31T06:43:34;17.80;;;5.97;;
75098;SDS011;63685;47.374;8.498;2022-10-31T06:46:03;13.98;;;5.35;;
75098;SDS011;63685;47.374;8.498;2022-10-31T06:48:30;11.93;;;5.28;;
75098;SDS011;63685;47.374;8.498;2022-10-31T06:50:59;14.60;;;5.45;;
75098;SDS011;63685;47.374;8.498;2022-10-31T06:53:25;9.20;;;4.90;;
75098;SDS011;63685;47.374;8.498;2022-10-31T06:55:51;10.48;;;4.85;;
75098;SDS011;63685;47.374;8.498;2022-10-31T06:58:17;10.05;;;5.05;;
75098;SDS011;63685;47.374;8.498;2022-10-31T07:00:42;9.38;;;5.38;;
75098;SDS011;63685;47.374;8.498;2022-10-31T07:03:10;9.55;;;5.15;;
75098;SDS011;63685;47.374;8.498;2022-10-31T07:05:36;10.00;;;5.65;;
75098;SDS011;63685;47.374;8.498;2022-10-31T07:08:03;10.45;;;5.32;;
75098;SDS011;63685;47.374;8.498;2022-10-31T07:10:31;9.48;;;4.90;;
75098;SDS011;63685;47.374;8.498;2022-10-31T07:12:58;11.20;;;4.72;;
75098;SDS011;63685;47.374;8.498;2022-10-31T07:15:26;8.82;;;4.60;;
75098;SDS011;63685;47.374;8.498;2022-10-31T07:17:53;11.70;;;5.15;;
75098;SDS011;63685;47.374;8.498;2022-10-31T07:20:19;11.43;;;4.95;;
75098;SDS011;63685;47.374;8.498;2022-10-31T07:22:45;7.45;;;5.72;;
75098;SDS011;63685;47.374;8.498;2022-10-31T07:25:10;7.68;;;5.82;;
75098;SDS011;63685;47.374;8.498;2022-10-31T07:27:37;8.68;;;5.97;;
75098;SDS011;63685;47.374;8.498;2022-10-31T07:30:03;8.07;;;6.03;;
75098;SDS011;63685;47.374;8.498;2022-10-31T07:32:36;7.68;;;6.32;;
75098;SDS011;63685;47.374;8.498;2022-10-31T07:35:09;8.90;;;6.30;;
75098;SDS011;63685;47.374;8.498;2022-10-31T07:37:37;7.72;;;6.05;;
75098;SDS011;63685;47.374;8.498;2022-10-31T07:40:03;8.77;;;6.40;;
75098;SDS011;63685;47.374;8.498;2022-10-31T07:42:29;9.73;;;6.78;;
75098;SDS011;63685;47.374;8.498;2022-10-31T07:44:59;10.98;;;6.40;;
75098;SDS011;63685;47.374;8.498;2022-10-31T07:47:24;10.73;;;6.70;;
75098;SDS011;63685;47.374;8.498;2022-10-31T07:49:50;8.07;;;5.93;;
75098;SDS011;63685;47.374;8.498;2022-10-31T07:52:15;12.80;;;6.13;;
75098;SDS011;63685;47.374;8.498;2022-10-31T07:54:41;10.68;;;5.72;;
75098;SDS011;63685;47.374;8.498;2022-10-31T07:57:06;8.35;;;5.38;;
75098;SDS011;63685;47.374;8.498;2022-10-31T07:59:32;8.73;;;5.80;;
75098;SDS011;63685;47.374;8.498;2022-10-31T08:01:57;9.57;;;5.25;;
75098;SDS011;63685;47.374;8.498;2022-10-31T08:04:23;11.48;;;5.63;;
75098;SDS011;63685;47.374;8.498;2022-10-31T08:06:48;11.45;;;6.15;;
75098;SDS011;63685;47.374;8.498;2022-10-31T08:09:14;8.63;;;4.93;;
75098;SDS011;63685;47.374;8.498;2022-10-31T08:11:39;8.85;;;5.22;;
75098;SDS011;63685;47.374;8.498;2022-10-31T08:14:05;10.77;;;5.20;;
75098;SDS011;63685;47.374;8.498;2022-10-31T08:16:31;9.27;;;4.75;;
75098;SDS011;63685;47.374;8.498;2022-10-31T08:18:56;7.97;;;4.55;;
75098;SDS011;63685;47.374;8.498;2022-10-31T08:21:22;7.95;;;4.85;;
75098;SDS011;63685;47.374;8.498;2022-10-31T08:23:47;11.68;;;5.35;;
75098;SDS011;63685;47.374;8.498;2022-10-31T08:26:13;7.80;;;4.43;;
75098;SDS011;63685;47.374;8.498;2022-10-31T08:28:39;8.57;;;4.70;;
75098;SDS011;63685;47.374;8.498;2022-10-31T08:31:04;8.63;;;4.20;;
75098;SDS011;63685;47.374;8.498;2022-10-31T08:33:30;7.38;;;4.57;;
75098;SDS011;63685;47.374;8.498;2022-10-31T08:35:57;10.65;;;5.80;;
75098;SDS011;63685;47.374;8.498;2022-10-31T08:38:23;9.45;;;5.68;;
75098;SDS011;63685;47.374;8.498;2022-10-31T08:40:49;8.68;;;5.50;;
75098;SDS011;63685;47.374;8.498;2022-10-31T08:43:15;10.20;;;5.40;;
75098;SDS011;63685;47.374;8.498;2022-10-31T08:45:42;8.95;;;5.18;;
75098;SDS011;63685;47.374;8.498;2022-10-31T08:48:10;10.07;;;5.60;;
75098;SDS011;63685;47.374;8.498;2022-10-31T08:50:37;10.75;;;6.13;;
75098;SDS011;63685;47.374;8.498;2022-10-31T08:53:04;10.50;;;5.78;;
75098;SDS011;63685;47.374;8.498;2022-10-31T08:55:32;8.75;;;5.45;;
75098;SDS011;63685;47.374;8.498;2022-10-31T08:58:00;8.32;;;4.60;;
75098;SDS011;63685;47.374;8.498;2022-10-31T09:00:26;8.18;;;5.18;;
75098;SDS011;63685;47.374;8.498;2022-10-31T09:02:58;9.73;;;5.32;;
75098;SDS011;63685;47.374;8.498;2022-10-31T09:05:24;10.68;;;4.88;;
75098;SDS011;63685;47.374;8.498;2022-10-31T09:07:51;6.75;;;4.93;;
75098;SDS011;63685;47.374;8.498;2022-10-31T09:10:19;8.55;;;5.10;;
75098;SDS011;63685;47.374;8.498;2022-10-31T09:12:45;11.25;;;5.75;;
75098;SDS011;63685;47.374;8.498;2022-10-31T09:15:11;8.13;;;4.53;;
75098;SDS011;63685;47.374;8.498;2022-10-31T09:17:36;6.70;;;4.07;;
75098;SDS011;63685;47.374;8.498;2022-10-31T09:20:02;6.85;;;4.65;;
75098;SDS011;63685;47.374;8.498;2022-10-31T09:22:27;8.63;;;4.65;;
75098;SDS011;63685;47.374;8.498;2022-10-31T09:24:53;8.07;;;4.63;;
75098;SDS011;63685;47.374;8.498;2022-10-31T09:27:18;6.68;;;4.53;;
75098;SDS011;63685;47.374;8.498;2022-10-31T09:29:44;6.88;;;4.78;;
75098;SDS011;63685;47.374;8.498;2022-10-31T09:32:09;6.97;;;4.53;;
75098;SDS011;63685;47.374;8.498;2022-10-31T09:34:35;9.05;;;4.50;;
75098;SDS011;63685;47.374;8.498;2022-10-31T09:37:00;7.10;;;4.43;;
75098;SDS011;63685;47.374;8.498;2022-10-31T09:39:26;8.00;;;4.32;;
75098;SDS011;63685;47.374;8.498;2022-10-31T09:50:22;8.35;;;4.75;;
75098;SDS011;63685;47.374;8.498;2022-10-31T09:52:51;6.43;;;4.50;;
75098;SDS011;63685;47.374;8.498;2022-10-31T09:55:35;5.25;;;4.05;;
75098;SDS011;63685;47.374;8.498;2022-10-31T09:58:13;10.18;;;4.57;;
75098;SDS011;63685;47.374;8.498;2022-10-31T10:00:50;7.20;;;4.40;;
75098;SDS011;63685;47.374;8.498;2022-10-31T10:08:38;8.88;;;4.47;;
75098;SDS011;63685;47.374;8.498;2022-10-31T10:22:42;7.88;;;4.22;;
75098;SDS011;63685;47.374;8.498;2022-10-31T10:25:32;7.90;;;4.80;;
75098;SDS011;63685;47.374;8.498;2022-10-31T10:30:42;6.13;;;4.47;;
75098;SDS011;63685;47.374;8.498;2022-10-31T10:33:14;8.07;;;4.05;;
75098;SDS011;63685;47.374;8.498;2022-10-31T10:35:47;6.47;;;4.13;;
75098;SDS011;63685;47.374;8.498;2022-10-31T10:38:20;8.40;;;4.60;;
75098;SDS011;63685;47.374;8.498;2022-10-31T10:40:49;7.85;;;4.60;;
75098;SDS011;63685;47.374;8.498;2022-10-31T10:49:24;5.72;;;3.78;;
75098;SDS011;63685;47.374;8.498;2022-10-31T10:52:11;6.32;;;4.05;;
75098;SDS011;63685;47.374;8.498;2022-10-31T10:57:46;7.70;;;4.22;;
75098;SDS011;63685;47.374;8.498;2022-10-31T11:00:26;5.30;;;4.00;;
75098;SDS011;63685;47.374;8.498;2022-10-31T11:02:56;6.03;;;3.97;;
75098;SDS011;63685;47.374;8.498;2022-10-31T11:05:30;8.45;;;4.35;;
75098;SDS011;63685;47.374;8.498;2022-10-31T11:08:04;6.72;;;3.72;;
75098;SDS011;63685;47.374;8.498;2022-10-31T11:10:30;6.93;;;4.30;;
75098;SDS011;63685;47.374;8.498;2022-10-31T11:13:17;6.43;;;3.65;;
75098;SDS011;63685;47.374;8.498;2022-10-31T11:16:10;5.93;;;4.22;;
75098;SDS011;63685;47.374;8.498;2022-10-31T11:18:39;5.32;;;3.72;;
75098;SDS011;63685;47.374;8.498;2022-10-31T11:21:19;7.78;;;4.00;;
75098;SDS011;63685;47.374;8.498;2022-10-31T11:26:34;5.82;;;3.70;;
75098;SDS011;63685;47.374;8.498;2022-10-31T11:29:02;7.00;;;3.85;;
75098;SDS011;63685;47.374;8.498;2022-10-31T11:31:29;7.30;;;4.18;;
75098;SDS011;63685;47.374;8.498;2022-10-31T11:36:47;5.63;;;3.78;;
75098;SDS011;63685;47.374;8.498;2022-10-31T11:39:15;7.15;;;4.30;;
75098;SDS011;63685;47.374;8.498;2022-10-31T11:41:44;7.53;;;4.25;;
75098;SDS011;63685;47.374;8.498;2022-10-31T11:44:12;7.00;;;4.18;;
75098;SDS011;63685;47.374;8.498;2022-10-31T11:46:54;6.70;;;4.03;;
75098;SDS011;63685;47.374;8.498;2022-10-31T11:49:36;4.72;;;3.78;;
75098;SDS011;63685;47.374;8.498;2022-10-31T11:52:14;7.32;;;4.18;;
75098;SDS011;63685;47.374;8.498;2022-10-31T11:54:47;7.22;;;4.30;;
75098;SDS011;63685;47.374;8.498;2022-10-31T11:59:57;6.60;;;3.90;;
75098;SDS011;63685;47.374;8.498;2022-10-31T12:02:24;5.50;;;4.00;;
75098;SDS011;63685;47.374;8.498;2022-10-31T12:04:52;6.65;;;4.15;;
75098;SDS011;63685;47.374;8.498;2022-10-31T12:07:23;6.60;;;3.83;;
75098;SDS011;63685;47.374;8.498;2022-10-31T12:09:49;5.07;;;3.88;;
75098;SDS011;63685;47.374;8.498;2022-10-31T12:12:32;5.25;;;3.70;;
75098;SDS011;63685;47.374;8.498;2022-10-31T12:20:21;5.15;;;3.75;;
75098;SDS011;63685;47.374;8.498;2022-10-31T12:25:51;7.03;;;3.70;;
75098;SDS011;63685;47.374;8.498;2022-10-31T12:31:50;11.27;;;6.55;;
75098;SDS011;63685;47.374;8.498;2022-10-31T12:37:05;13.35;;;8.65;;
75098;SDS011;63685;47.374;8.498;2022-10-31T12:59:08;13.40;;;9.13;;
75098;SDS011;63685;47.374;8.498;2022-10-31T13:01:46;13.60;;;8.80;;
75098;SDS011;63685;47.374;8.498;2022-10-31T13:04:33;14.20;;;8.82;;
75098;SDS011;63685;47.374;8.498;2022-10-31T13:07:12;17.55;;;9.35;;
75098;SDS011;63685;47.374;8.498;2022-10-31T13:10:05;17.92;;;9.90;;
75098;SDS011;63685;47.374;8.498;2022-10-31T13:12:33;17.70;;;10.07;;
75098;SDS011;63685;47.374;8.498;2022-10-31T13:15:18;13.25;;;9.60;;
75098;SDS011;63685;47.374;8.498;2022-10-31T13:17:47;16.13;;;10.10;;
75098;SDS011;63685;47.374;8.498;2022-10-31T13:20:24;18.08;;;10.57;;
75098;SDS011;63685;47.374;8.498;2022-10-31T13:25:49;15.63;;;8.63;;
75098;SDS011;63685;47.374;8.498;2022-10-31T13:28:37;15.60;;;9.38;;
75098;SDS011;63685;47.374;8.498;2022-10-31T13:31:13;13.88;;;8.65;;
75098;SDS011;63685;47.374;8.498;2022-10-31T13:33:40;12.40;;;8.05;;
75098;SDS011;63685;47.374;8.498;2022-10-31T13:44:20;14.82;;;7.85;;
75098;SDS011;63685;47.374;8.498;2022-10-31T13:46:50;12.23;;;7.45;;
75098;SDS011;63685;47.374;8.498;2022-10-31T13:52:05;14.18;;;7.60;;
75098;SDS011;63685;47.374;8.498;2022-10-31T13:54:34;12.52;;;6.75;;
75098;SDS011;63685;47.374;8.498;2022-10-31T13:57:50;14.10;;;7.28;;
75098;SDS011;63685;47.374;8.498;2022-10-31T13:59:57;12.13;;;6.88;;
75098;SDS011;63685;47.374;8.498;2022-10-31T14:04:56;12.85;;;6.70;;
75098;SDS011;63685;47.374;8.498;2022-10-31T14:07:25;28.23;;;6.90;;
75098;SDS011;63685;47.374;8.498;2022-10-31T14:10:04;15.35;;;6.05;;
75098;SDS011;63685;47.374;8.498;2022-10-31T14:12:49;12.43;;;5.53;;
75098;SDS011;63685;47.374;8.498;2022-10-31T14:15:16;11.18;;;5.18;;
75098;SDS011;63685;47.374;8.498;2022-10-31T14:18:00;12.70;;;5.63;;
75098;SDS011;63685;47.374;8.498;2022-10-31T14:20:40;12.77;;;5.55;;
75098;SDS011;63685;47.374;8.498;2022-10-31T14:23:30;10.82;;;5.18;;
75098;SDS011;63685;47.374;8.498;2022-10-31T14:28:51;10.10;;;4.72;;
75098;SDS011;63685;47.374;8.498;2022-10-31T14:31:29;10.73;;;5.30;;
75098;SDS011;63685;47.374;8.498;2022-10-31T14:33:57;13.90;;;5.65;;
75098;SDS011;63685;47.374;8.498;2022-10-31T14:36:27;17.02;;;4.93;;
75098;SDS011;63685;47.374;8.498;2022-10-31T14:39:21;10.70;;;4.65;;
75098;SDS011;63685;47.374;8.498;2022-10-31T14:42:01;11.05;;;5.20;;
75098;SDS011;63685;47.374;8.498;2022-10-31T14:50:45;27.20;;;5.68;;
75098;SDS011;63685;47.374;8.498;2022-10-31T14:53:18;8.15;;;4.20;;
75098;SDS011;63685;47.374;8.498;2022-10-31T14:56:05;10.95;;;4.72;;
75098;SDS011;63685;47.374;8.498;2022-10-31T14:58:37;10.35;;;4.78;;
75098;SDS011;63685;47.374;8.498;2022-10-31T15:01:15;12.60;;;5.25;;
75098;SDS011;63685;47.374;8.498;2022-10-31T15:03:44;12.73;;;4.38;;
75098;SDS011;63685;47.374;8.498;2022-10-31T15:06:14;9.27;;;4.30;;
75098;SDS011;63685;47.374;8.498;2022-10-31T15:08:45;9.93;;;4.13;;
75098;SDS011;63685;47.374;8.498;2022-10-31T15:13:52;7.50;;;4.20;;
75098;SDS011;63685;47.374;8.498;2022-10-31T15:16:24;11.50;;;4.72;;
75098;SDS011;63685;47.374;8.498;2022-10-31T15:21:29;7.70;;;4.18;;
75098;SDS011;63685;47.374;8.498;2022-10-31T15:24:00;9.43;;;4.53;;
75098;SDS011;63685;47.374;8.498;2022-10-31T15:26:29;8.00;;;4.30;;
75098;SDS011;63685;47.374;8.498;2022-10-31T15:29:11;8.13;;;4.15;;
75098;SDS011;63685;47.374;8.498;2022-10-31T15:34:45;7.20;;;4.18;;
75098;SDS011;63685;47.374;8.498;2022-10-31T15:37:12;8.48;;;4.63;;
75098;SDS011;63685;47.374;8.498;2022-10-31T15:39:39;6.40;;;4.00;;
75098;SDS011;63685;47.374;8.498;2022-10-31T15:42:14;8.02;;;3.70;;
75098;SDS011;63685;47.374;8.498;2022-10-31T15:44:56;7.22;;;4.28;;
75098;SDS011;63685;47.374;8.498;2022-10-31T15:47:30;8.25;;;4.07;;
75098;SDS011;63685;47.374;8.498;2022-10-31T15:49:57;7.70;;;3.90;;
75098;SDS011;63685;47.374;8.498;2022-10-31T15:52:41;6.93;;;4.05;;
75098;SDS011;63685;47.374;8.498;2022-10-31T15:57:44;6.70;;;3.88;;
75098;SDS011;63685;47.374;8.498;2022-10-31T16:05:46;7.93;;;3.58;;
75098;SDS011;63685;47.374;8.498;2022-10-31T16:10:58;7.57;;;3.83;;
75098;SDS011;63685;47.374;8.498;2022-10-31T16:13:31;8.77;;;4.00;;
75098;SDS011;63685;47.374;8.498;2022-10-31T16:16:03;7.70;;;4.13;;
75098;SDS011;63685;47.374;8.498;2022-10-31T16:18:36;4.70;;;3.30;;
75098;SDS011;63685;47.374;8.498;2022-10-31T16:21:04;7.22;;;3.40;;
75098;SDS011;63685;47.374;8.498;2022-10-31T16:23:30;7.53;;;3.88;;
75098;SDS011;63685;47.374;8.498;2022-10-31T16:25:56;7.00;;;3.60;;
75098;SDS011;63685;47.374;8.498;2022-10-31T16:28:23;15.15;;;4.07;;
75098;SDS011;63685;47.374;8.498;2022-10-31T16:30:51;5.47;;;3.55;;
75098;SDS011;63685;47.374;8.498;2022-10-31T16:35:56;7.80;;;3.40;;
75098;SDS011;63685;47.374;8.498;2022-10-31T16:38:23;11.95;;;3.67;;
75098;SDS011;63685;47.374;8.498;2022-10-31T16:40:49;10.77;;;4.53;;
75098;SDS011;63685;47.374;8.498;2022-10-31T16:43:17;10.95;;;3.50;;
75098;SDS011;63685;47.374;8.498;2022-10-31T16:45:47;9.15;;;4.22;;
75098;SDS011;63685;47.374;8.498;2022-10-31T16:48:18;7.78;;;3.60;;
75098;SDS011;63685;47.374;8.498;2022-10-31T16:50:46;6.60;;;3.53;;
75098;SDS011;63685;47.374;8.498;2022-10-31T16:53:13;7.45;;;3.80;;
75098;SDS011;63685;47.374;8.498;2022-10-31T16:58:16;7.30;;;3.70;;
75098;SDS011;63685;47.374;8.498;2022-10-31T17:00:46;6.82;;;3.58;;
75098;SDS011;63685;47.374;8.498;2022-10-31T17:03:27;7.00;;;3.67;;
75098;SDS011;63685;47.374;8.498;2022-10-31T17:05:52;9.55;;;3.90;;
75098;SDS011;63685;47.374;8.498;2022-10-31T17:08:20;8.82;;;3.55;;
75098;SDS011;63685;47.374;8.498;2022-10-31T17:10:46;7.53;;;3.72;;
75098;SDS011;63685;47.374;8.498;2022-10-31T17:13:25;6.65;;;3.50;;
75098;SDS011;63685;47.374;8.498;2022-10-31T17:15:55;7.75;;;3.90;;
75098;SDS011;63685;47.374;8.498;2022-10-31T17:18:23;6.80;;;3.47;;
75098;SDS011;63685;47.374;8.498;2022-10-31T17:20:48;6.25;;;3.45;;
75098;SDS011;63685;47.374;8.498;2022-10-31T17:23:15;8.35;;;3.45;;
75098;SDS011;63685;47.374;8.498;2022-10-31T17:25:42;7.00;;;3.25;;
75098;SDS011;63685;47.374;8.498;2022-10-31T17:28:11;6.95;;;3.42;;
75098;SDS011;63685;47.374;8.498;2022-10-31T17:30:38;8.85;;;3.60;;
75098;SDS011;63685;47.374;8.498;2022-10-31T17:33:04;6.97;;;3.28;;
75098;SDS011;63685;47.374;8.498;2022-10-31T17:35:30;11.82;;;6.72;;
75098;SDS011;63685;47.374;8.498;2022-10-31T17:37:56;12.73;;;6.40;;